Time;durP1;ratioP1;P1;durP2;ratioP2;P2;SDS_P1;SDS_P2;PMS_P1;PMS_P2;Temp;Humidity;BMP_temperature;BMP_pressure;BME280_temperature;BME280_humidity;BME280_pressure;Samples;Min_cycle;Max_cycle;Signal;HPM_P1;HPM_P2
2022/05/24 00:00:07;;;;;;;14.95;8.15;;;20.30;99.90;;;;;;5018088;28;20669;-81
2022/05/24 00:02:38;;;;;;;10.43;6.72;;;20.40;99.90;;;;;;5035645;28;20053;-82
2022/05/24 00:05:08;;;;;;;10.85;6.90;;;20.40;99.90;;;;;;5051366;28;20415;-81
2022/05/24 00:07:37;;;;;;;15.63;7.80;;;20.30;99.90;;;;;;5035071;28;20056;-81
2022/05/24 00:10:07;;;;;;;13.02;6.85;;;20.30;99.90;;;;;;5034468;28;20059;-81
2022/05/24 00:12:35;;;;;;;12.13;7.05;;;20.30;99.90;;;;;;5051029;28;20593;-81
2022/05/24 00:15:24;;;;;;;12.65;7.18;;;20.30;99.90;;;;;;5051109;28;20057;-81
2022/05/24 00:17:57;;;;;;;18.20;7.70;;;20.30;99.90;;;;;;5017947;28;20071;-81
2022/05/24 00:20:31;;;;;;;18.50;9.48;;;20.30;99.90;;;;;;5017941;28;20087;-81
2022/05/24 00:22:59;;;;;;;16.00;8.30;;;20.20;99.90;;;;;;5017956;28;20106;-81
2022/05/24 00:25:28;;;;;;;13.10;7.28;;;20.30;99.90;;;;;;5034700;28;20041;-80
2022/05/24 00:27:56;;;;;;;17.25;7.30;;;20.30;99.90;;;;;;5050665;28;20049;-81
2022/05/24 00:30:23;;;;;;;14.18;6.72;;;20.30;99.90;;;;;;5034399;28;20398;-81
2022/05/24 00:32:51;;;;;;;12.45;6.97;;;20.30;99.90;;;;;;5017641;28;20138;-81
2022/05/24 00:35:19;;;;;;;9.90;6.95;;;20.30;99.90;;;;;;5017698;28;20107;-81
2022/05/24 00:37:48;;;;;;;12.70;7.80;;;20.30;99.90;;;;;;5017585;28;20087;-81
2022/05/24 00:40:33;;;;;;;16.85;8.90;;;20.40;99.90;;;;;;5017740;28;20049;-81
2022/05/24 00:43:08;;;;;;;15.32;8.68;;;20.30;99.90;;;;;;5032286;28;20056;-81
2022/05/24 00:45:49;;;;;;;15.18;7.60;;;20.20;99.90;;;;;;5030741;28;20052;-81
2022/05/24 00:48:37;;;;;;;16.60;8.85;;;20.10;99.90;;;;;;5030737;28;20492;-81
2022/05/24 00:51:11;;;;;;;14.40;7.43;;;20.00;99.90;;;;;;5029501;28;20053;-81
2022/05/24 00:53:41;;;;;;;12.38;9.77;;;20.00;99.90;;;;;;5030255;28;20041;-81
2022/05/24 00:56:47;;;;;;;16.05;8.90;;;20.00;99.90;;;;;;5031634;28;20099;-81
2022/05/24 00:59:44;;;;;;;16.17;9.63;;;20.00;99.90;;;;;;5030213;28;20391;-80
2022/05/24 01:02:12;;;;;;;;;;;20.00;99.90;;;;;;5025970;28;20428;-80
2022/05/24 01:04:40;;;;;;;13.32;7.82;;;20.00;99.90;;;;;;5030214;28;19925;-81
2022/05/24 01:07:08;;;;;;;17.73;8.60;;;20.00;99.90;;;;;;5030389;28;20045;-81
2022/05/24 01:10:08;;;;;;;24.05;11.05;;;20.00;99.90;;;;;;5013949;28;20084;-81
2022/05/24 01:12:50;;;;;;;17.98;8.07;;;20.00;99.90;;;;;;5029455;28;20077;-81
2022/05/24 01:15:19;;;;;;;18.75;10.20;;;20.10;99.90;;;;;;5013069;28;20056;-81
2022/05/24 01:17:49;;;;;;;15.10;8.25;;;20.10;99.90;;;;;;5030111;28;20140;-81
2022/05/24 01:20:17;;;;;;;20.50;9.77;;;20.10;99.90;;;;;;4997594;28;20100;-80
2022/05/24 01:23:02;;;;;;;15.85;8.38;;;20.00;99.90;;;;;;5029429;28;20106;-80
2022/05/24 01:25:42;;;;;;;16.75;9.90;;;20.10;99.90;;;;;;4996970;28;20057;-80
2022/05/24 01:28:33;;;;;;;15.70;9.43;;;20.00;99.90;;;;;;5013820;28;20042;-80
2022/05/24 01:31:02;;;;;;;18.10;10.75;;;20.00;99.90;;;;;;5030429;28;20100;-80
2022/05/24 01:36:17;;;;;;;18.13;8.85;;;20.10;99.90;;;;;;5090862;28;20135;-81
2022/05/24 01:38:52;;;;;;;15.05;9.00;;;20.10;99.90;;;;;;5056264;28;20055;-81
2022/05/24 01:41:23;;;;;;;20.67;10.32;;;20.20;99.90;;;;;;5039638;28;20102;-80
2022/05/24 01:43:54;;;;;;;17.10;9.77;;;20.10;99.90;;;;;;5091021;28;20040;-81
2022/05/24 01:46:26;;;;;;;18.42;9.35;;;20.10;99.90;;;;;;5056061;28;20087;-81
2022/05/24 01:49:00;;;;;;;23.15;9.73;;;20.10;99.90;;;;;;5056467;28;20104;-80
2022/05/24 01:51:38;;;;;;;15.77;9.77;;;20.10;99.90;;;;;;5072747;28;20120;-81
2022/05/24 01:54:08;;;;;;;21.85;9.90;;;20.10;99.90;;;;;;5072712;28;20109;-81
2022/05/24 01:56:54;;;;;;;13.02;10.38;;;20.10;99.90;;;;;;5072827;28;20480;-81
2022/05/24 01:59:22;;;;;;;20.52;10.68;;;20.10;99.90;;;;;;5056326;28;20090;-81
2022/05/24 02:02:00;;;;;;;16.20;10.90;;;20.10;99.90;;;;;;5056126;28;20101;-80
2022/05/24 02:04:30;;;;;;;16.02;9.13;;;20.30;99.90;;;;;;5056491;28;20660;-81
2022/05/24 02:07:19;;;;;;;14.02;9.60;;;20.40;99.90;;;;;;5055519;28;20525;-81
2022/05/24 02:09:49;;;;;;;16.48;8.35;;;20.30;99.90;;;;;;5039499;28;20048;-81
2022/05/24 02:12:23;;;;;;;18.15;10.32;;;20.30;99.90;;;;;;5056458;28;20510;-81
2022/05/24 02:15:14;;;;;;;13.63;8.27;;;20.40;99.90;;;;;;5055964;28;20050;-81
2022/05/24 02:18:02;;;;;;;13.73;9.60;;;20.30;99.90;;;;;;5056028;28;20064;-82
2022/05/24 02:20:36;;;;;;;18.40;10.05;;;20.20;99.90;;;;;;5055957;28;20490;-81
2022/05/24 02:23:08;;;;;;;19.58;8.60;;;20.20;99.90;;;;;;5073510;28;20040;-81
2022/05/24 02:25:56;;;;;;;15.10;9.23;;;20.20;99.90;;;;;;5072573;28;20048;-80
2022/05/24 02:28:29;;;;;;;16.38;10.23;;;20.10;99.90;;;;;;5070068;28;20048;-81
2022/05/24 02:31:00;;;;;;;12.95;9.57;;;20.00;99.90;;;;;;5071961;28;20047;-81
2022/05/24 02:33:30;;;;;;;16.20;11.20;;;19.90;99.90;;;;;;5039293;28;20454;-81
2022/05/24 02:35:58;;;;;;;14.07;10.02;;;19.80;99.90;;;;;;5055489;28;20135;-81
2022/05/24 02:38:25;;;;;;;20.98;11.40;;;19.90;99.90;;;;;;5072737;28;20036;-80
2022/05/24 02:43:39;;;;;;;17.63;10.80;;;19.90;99.90;;;;;;5072394;28;20052;-81
2022/05/24 02:46:07;;;;;;;20.00;10.63;;;19.90;99.90;;;;;;5055549;28;20055;-81
2022/05/24 02:48:36;;;;;;;17.85;10.80;;;19.90;99.90;;;;;;5038695;28;20044;-80
2022/05/24 02:51:11;;;;;;;15.80;8.98;;;19.90;99.90;;;;;;5055989;28;20052;-81
2022/05/24 02:53:41;;;;;;;13.18;9.43;;;19.90;99.90;;;;;;5072901;28;20052;-80
2022/05/24 02:56:09;;;;;;;16.00;10.15;;;19.90;99.90;;;;;;5039414;28;20462;-80
2022/05/24 02:58:37;;;;;;;17.77;9.70;;;20.00;99.90;;;;;;5072404;28;20047;-81
2022/05/24 03:01:12;;;;;;;17.05;10.77;;;19.80;99.90;;;;;;5050941;28;20060;-81
2022/05/24 03:03:40;;;;;;;17.50;10.30;;;19.90;99.90;;;;;;5067787;28;20072;-78
2022/05/24 03:06:08;;;;;;;19.27;11.18;;;20.00;99.90;;;;;;5075775;28;20294;-79
2022/05/24 03:11:25;;;;;;;24.75;11.05;;;19.80;99.90;;;;;;5075505;28;20101;-78
2022/05/24 03:16:39;;;;;;;18.70;10.82;;;19.70;99.90;;;;;;5057981;28;20490;-82
2022/05/24 03:19:06;;;;;;;17.63;11.73;;;19.70;99.90;;;;;;5093703;28;20044;-81
2022/05/24 03:21:34;;;;;;;16.48;10.63;;;19.70;99.90;;;;;;5054020;28;20044;-80
2022/05/24 03:24:02;;;;;;;19.70;11.45;;;19.70;99.90;;;;;;5038633;28;20375;-81
2022/05/24 03:26:29;;;;;;;21.75;11.68;;;19.70;99.90;;;;;;5055186;28;20067;-80
2022/05/24 03:28:58;;;;;;;21.80;12.57;;;19.70;99.90;;;;;;5037254;28;20540;-80
2022/05/24 03:31:26;;;;;;;18.98;11.32;;;19.70;99.90;;;;;;5072904;28;20060;-80
2022/05/24 03:33:54;;;;;;;24.27;11.57;;;19.70;99.90;;;;;;5038390;28;20560;-81
2022/05/24 03:36:28;;;;;;;23.73;12.88;;;19.70;99.90;;;;;;5055398;28;20147;-80
2022/05/24 03:38:56;;;;;;;18.65;11.73;;;19.70;99.90;;;;;;5038507;28;20110;-80
2022/05/24 03:41:24;;;;;;;20.63;13.48;;;19.70;99.90;;;;;;5055116;28;20052;-80
2022/05/24 03:43:52;;;;;;;19.83;11.77;;;19.70;99.90;;;;;;5071207;28;20037;-81
2022/05/24 03:46:20;;;;;;;24.75;13.20;;;19.70;99.90;;;;;;5055256;28;20044;-80
2022/05/24 03:48:47;;;;;;;19.50;10.85;;;19.70;99.90;;;;;;5038753;28;20075;-80
2022/05/24 03:51:17;;;;;;;17.27;10.90;;;19.80;99.90;;;;;;5055210;28;20486;-80
2022/05/24 03:53:44;;;;;;;19.48;11.45;;;19.80;99.90;;;;;;5022207;28;20086;-80
2022/05/24 03:56:12;;;;;;;16.88;11.50;;;19.80;99.90;;;;;;5038183;28;20183;-81
2022/05/24 03:58:40;;;;;;;23.30;12.05;;;19.90;99.90;;;;;;5038248;28;20083;-80
2022/05/24 04:01:08;;;;;;;21.90;11.35;;;19.90;99.90;;;;;;5038654;28;20056;-80
2022/05/24 04:03:36;;;;;;;19.08;10.73;;;20.00;99.90;;;;;;5054699;28;20560;-80
2022/05/24 04:06:04;;;;;;;18.98;9.50;;;20.10;99.90;;;;;;5054429;28;20044;-80
2022/05/24 04:08:32;;;;;;;15.80;10.43;;;20.10;99.90;;;;;;5021768;28;20568;-80
2022/05/24 04:11:06;;;;;;;19.17;10.57;;;20.10;99.90;;;;;;5038189;28;20060;-80
2022/05/24 04:13:36;;;;;;;19.83;10.57;;;20.10;99.90;;;;;;5035971;28;20545;-81
2022/05/24 04:16:04;;;;;;;16.25;10.35;;;20.20;99.90;;;;;;5037963;28;20601;-81
2022/05/24 04:18:32;;;;;;;17.25;10.52;;;20.10;99.90;;;;;;5032164;28;20097;-81
2022/05/24 04:21:00;;;;;;;19.90;10.32;;;20.10;99.90;;;;;;5038054;28;20048;-82
2022/05/24 04:23:28;;;;;;;17.52;9.60;;;20.00;99.90;;;;;;5037570;28;20375;-80
2022/05/24 04:25:56;;;;;;;20.02;9.57;;;20.00;99.90;;;;;;5070822;28;20444;-81
2022/05/24 04:28:24;;;;;;;17.60;11.70;;;20.10;99.90;;;;;;5053871;28;20110;-80
2022/05/24 04:30:52;;;;;;;17.40;10.75;;;20.20;99.90;;;;;;5054455;28;20090;-81
2022/05/24 04:33:21;;;;;;;26.02;10.18;;;20.20;99.90;;;;;;5053870;28;20098;-81
2022/05/24 04:35:49;;;;;;;15.93;10.40;;;20.30;99.90;;;;;;5037736;28;20052;-81
2022/05/24 04:38:17;;;;;;;20.55;13.25;;;20.30;99.90;;;;;;5070230;28;20056;-81
2022/05/24 04:43:32;;;;;;;26.80;12.57;;;20.40;99.90;;;;;;5072009;28;20052;-81
2022/05/24 04:46:00;;;;;;;16.27;10.00;;;20.50;99.90;;;;;;5020919;28;20048;-81
2022/05/24 04:48:29;;;;;;;13.57;9.68;;;20.50;99.90;;;;;;5053581;28;20044;-81
2022/05/24 04:50:58;;;;;;;20.33;10.95;;;20.60;99.90;;;;;;5053882;28;20071;-81
2022/05/24 04:53:27;;;;;;;12.57;8.40;;;20.60;99.90;;;;;;5053870;28;20612;-81
2022/05/24 04:55:56;;;;;;;16.63;9.63;;;20.60;99.90;;;;;;5021010;28;20040;-81
2022/05/24 04:58:24;;;;;;;16.50;8.90;;;20.60;99.90;;;;;;5053650;28;20048;-81
2022/05/24 05:00:51;;;;;;;14.85;9.18;;;20.60;99.90;;;;;;5053310;28;20049;-81
2022/05/24 05:03:21;;;;;;;12.85;7.63;;;20.70;99.90;;;;;;5053140;28;20532;-81
2022/05/24 05:05:51;;;;;;;13.73;8.27;;;20.90;99.90;;;;;;5053783;28;20131;-82
2022/05/24 05:08:19;;;;;;;12.40;8.90;;;20.80;99.90;;;;;;5053574;28;20105;-81
2022/05/24 05:10:48;;;;;;;12.15;7.82;;;20.90;99.90;;;;;;5037405;28;20056;-81
2022/05/24 05:13:16;;;;;;;13.98;7.82;;;20.80;99.90;;;;;;5082200;28;20060;-81
2022/05/24 05:15:44;;;;;;;17.00;8.52;;;20.90;99.90;;;;;;5070552;28;20041;-80
2022/05/24 05:18:14;;;;;;;15.48;8.07;;;21.00;99.90;;;;;;5053013;28;20052;-81
2022/05/24 05:20:42;;;;;;;14.30;7.55;;;21.10;99.90;;;;;;5036827;28;20064;-81
2022/05/24 05:23:12;;;;;;;17.38;8.52;;;21.30;99.90;;;;;;5053438;28;20052;-80
2022/05/24 05:25:41;;;;;;;12.63;7.95;;;21.30;99.90;;;;;;5036519;28;20040;-81
2022/05/24 05:28:10;;;;;;;14.52;7.97;;;21.40;99.90;;;;;;5053000;28;20040;-81
2022/05/24 05:33:25;;;;;;;17.23;6.88;;;21.30;99.90;;;;;;5036430;28;20056;-81
2022/05/24 05:35:54;;;;;;;12.32;6.97;;;21.40;99.90;;;;;;5036229;28;20583;-81
2022/05/24 05:38:22;;;;;;;13.43;7.32;;;21.40;99.90;;;;;;5036462;28;20461;-81
2022/05/24 05:40:52;;;;;;;13.50;9.20;;;21.50;99.90;;;;;;5053014;28;20501;-81
2022/05/24 05:43:22;;;;;;;10.40;6.70;;;21.70;99.90;;;;;;5052782;28;20079;-81
2022/05/24 05:45:58;;;;;;;11.02;7.32;;;21.80;99.90;;;;;;5052543;28;20042;-82
2022/05/24 05:48:26;;;;;;;;;;;21.90;99.90;;;;;;5053343;28;20094;-81
2022/05/24 05:50:55;;;;;;;13.32;7.38;;;22.20;99.90;;;;;;5052365;28;19958;-81
2022/05/24 05:53:23;;;;;;;16.83;7.32;;;22.00;99.90;;;;;;5019714;28;20048;-81
2022/05/24 05:55:51;;;;;;;13.68;7.22;;;22.10;99.90;;;;;;5085087;28;20045;-81
2022/05/24 05:58:18;;;;;;;13.48;7.10;;;22.10;99.90;;;;;;5036124;28;20052;-81
2022/05/24 06:00:49;;;;;;;15.82;7.50;;;22.20;99.90;;;;;;5052618;28;20044;-81
2022/05/24 06:03:18;;;;;;;16.58;8.23;;;22.50;99.90;;;;;;5036268;28;20052;-81
2022/05/24 06:05:49;;;;;;;12.93;6.88;;;22.50;99.90;;;;;;5060627;28;20032;-82
2022/05/24 06:08:17;;;;;;;12.38;6.25;;;22.40;99.90;;;;;;5039765;28;20059;-81
2022/05/24 06:10:47;;;;;;;9.00;6.10;;;22.40;99.90;;;;;;5056589;28;20070;-81
2022/05/24 06:13:15;;;;;;;13.00;6.80;;;22.60;99.90;;;;;;5072596;28;20055;-81
2022/05/24 06:15:47;;;;;;;11.15;6.65;;;22.60;99.90;;;;;;5039867;28;20093;-82
2022/05/24 06:18:15;;;;;;;10.43;6.32;;;22.60;99.90;;;;;;5055727;28;20047;-81
2022/05/24 06:20:43;;;;;;;10.43;6.13;;;22.70;99.90;;;;;;5055566;28;20052;-82
2022/05/24 06:23:10;;;;;;;9.32;6.40;;;22.90;99.90;;;;;;5071837;28;20051;-81
2022/05/24 06:25:40;;;;;;;8.90;5.88;;;23.10;99.90;;;;;;5056016;28;20095;-81
2022/05/24 06:28:11;;;;;;;10.45;5.80;;;23.20;99.90;;;;;;5056028;28;20090;-82
2022/05/24 06:30:39;;;;;;;13.40;6.13;;;23.10;99.90;;;;;;5090457;28;20052;-82
2022/05/24 06:33:07;;;;;;;9.70;4.93;;;23.20;99.90;;;;;;5034239;28;20147;-82
2022/05/24 06:35:41;;;;;;;15.43;5.78;;;23.20;99.90;;;;;;5032152;28;20037;-82
2022/05/24 06:38:10;;;;;;;14.20;5.32;;;23.20;99.90;;;;;;5018854;28;20813;-81
2022/05/24 06:40:38;;;;;;;16.25;6.78;;;23.20;99.90;;;;;;5036029;28;20064;-82
2022/05/24 06:43:06;;;;;;;11.15;6.25;;;23.30;99.90;;;;;;5019927;28;20048;-82
2022/05/24 06:45:34;;;;;;;9.85;5.28;;;23.30;99.90;;;;;;5036243;28;20049;-80
2022/05/24 06:48:02;;;;;;;9.90;5.70;;;23.50;99.90;;;;;;5019517;28;20427;-80
2022/05/24 06:50:30;;;;;;;10.85;5.63;;;23.60;99.90;;;;;;5019481;28;20049;-80
2022/05/24 06:52:58;;;;;;;14.35;5.65;;;23.40;99.90;;;;;;5019548;28;20049;-80
2022/05/24 06:55:26;;;;;;;9.20;5.07;;;23.50;99.90;;;;;;5052708;28;20087;-79
2022/05/24 06:57:53;;;;;;;9.85;6.10;;;23.60;99.90;;;;;;5052341;28;20410;-80
2022/05/24 07:03:14;;;;;;;12.65;5.35;;;23.60;99.90;;;;;;5031658;28;20195;-80
2022/05/24 07:05:43;;;;;;;11.15;5.93;;;23.90;99.90;;;;;;5015554;28;20092;-79
2022/05/24 07:08:17;;;;;;;10.70;5.28;;;24.10;99.90;;;;;;5015416;28;20096;-81
2022/05/24 07:10:45;;;;;;;11.82;5.70;;;24.10;99.90;;;;;;5015180;28;20053;-80
2022/05/24 07:13:17;;;;;;;5.80;4.97;;;24.10;99.90;;;;;;5048439;28;20053;-81
2022/05/24 07:15:46;;;;;;;10.10;5.38;;;24.20;99.90;;;;;;5015905;28;20053;-81
2022/05/24 07:18:14;;;;;;;12.05;5.85;;;24.30;99.90;;;;;;5032059;28;20045;-82
2022/05/24 07:20:42;;;;;;;9.50;5.35;;;24.30;99.90;;;;;;5032293;28;20048;-82
2022/05/24 07:23:16;;;;;;;11.10;4.80;;;24.30;99.90;;;;;;5031439;28;20088;-82
2022/05/24 07:25:45;;;;;;;10.85;5.40;;;24.50;99.90;;;;;;4999214;28;20067;-80
2022/05/24 07:28:16;;;;;;;10.70;5.88;;;24.50;99.90;;;;;;5016017;28;20167;-79
2022/05/24 07:30:46;;;;;;;9.20;5.40;;;24.40;99.90;;;;;;5015899;28;20091;-80
2022/05/24 07:33:14;;;;;;;16.35;5.65;;;24.30;99.90;;;;;;5015353;28;20053;-80
2022/05/24 07:35:42;;;;;;;10.63;5.53;;;24.40;99.90;;;;;;4999022;28;20045;-80
2022/05/24 07:38:12;;;;;;;9.15;5.47;;;24.50;99.90;;;;;;5031525;28;20057;-82
2022/05/24 07:46:14;;;;;;;15.23;6.15;;;24.30;99.90;;;;;;5014895;28;20148;-81
2022/05/24 07:48:42;;;;;;;12.00;5.15;;;24.40;99.90;;;;;;4998619;28;20046;-82
2022/05/24 07:51:10;;;;;;;8.50;5.43;;;24.50;99.90;;;;;;5032684;28;20048;-82
2022/05/24 07:53:38;;;;;;;9.15;6.28;;;24.50;99.90;;;;;;5031658;28;20571;-80
2022/05/24 07:56:06;;;;;;;7.22;5.22;;;24.70;99.90;;;;;;5031237;28;20073;-80
2022/05/24 07:58:33;;;;;;;10.57;5.18;;;24.70;99.90;;;;;;5031628;28;20050;-83
2022/05/24 08:01:02;;;;;;;9.65;5.03;;;24.80;99.90;;;;;;5031659;28;20053;-82
2022/05/24 08:03:30;;;;;;;9.07;4.40;;;24.90;99.90;;;;;;5015091;28;20079;-83
2022/05/24 08:05:57;;;;;;;11.25;5.15;;;25.00;99.90;;;;;;5015038;28;20069;-82
2022/05/24 08:08:25;;;;;;;9.38;5.25;;;24.90;99.90;;;;;;5014921;28;20049;-82
2022/05/24 08:10:52;;;;;;;6.32;4.68;;;25.00;99.90;;;;;;5015099;28;20091;-82
2022/05/24 08:13:21;;;;;;;9.05;5.28;;;24.80;99.90;;;;;;5031463;28;20435;-82
2022/05/24 08:15:53;;;;;;;12.20;5.13;;;24.80;99.90;;;;;;5030954;28;20086;-82
2022/05/24 08:18:22;;;;;;;10.18;5.32;;;24.90;99.90;;;;;;5014675;28;20045;-83
2022/05/24 08:20:49;;;;;;;9.10;3.92;;;25.00;99.90;;;;;;5014753;28;20085;-83
2022/05/24 08:23:21;;;;;;;11.40;4.88;;;25.00;99.90;;;;;;5032186;28;20140;-83
2022/05/24 08:25:50;;;;;;;11.95;5.00;;;25.00;99.80;;;;;;5030692;28;20504;-82
2022/05/24 08:28:18;;;;;;;10.02;4.93;;;25.20;99.60;;;;;;5014837;28;20061;-82
2022/05/24 08:30:46;;;;;;;9.52;5.85;;;25.30;99.70;;;;;;5030744;28;20442;-82
2022/05/24 08:33:15;;;;;;;11.15;5.45;;;25.30;98.80;;;;;;5032587;28;20103;-80
2022/05/24 08:35:43;;;;;;;9.50;4.07;;;25.20;99.00;;;;;;5067539;28;20033;-80
2022/05/24 08:38:12;;;;;;;10.30;4.43;;;25.30;99.20;;;;;;5017708;28;20498;-79
2022/05/24 08:40:42;;;;;;;8.07;4.68;;;25.20;99.00;;;;;;5017481;28;20585;-82
2022/05/24 08:43:38;;;;;;;12.02;5.40;;;25.20;99.50;;;;;;5034017;28;20053;-83
2022/05/24 08:49:13;;;;;;;8.98;4.97;;;25.40;99.50;;;;;;5010557;28;20052;-82
2022/05/24 08:51:54;;;;;;;8.98;4.82;;;25.10;99.40;;;;;;5034620;28;20043;-82
2022/05/24 08:54:37;;;;;;;7.22;5.18;;;25.20;99.20;;;;;;5050454;28;20159;-82
2022/05/24 08:57:10;;;;;;;8.75;4.72;;;25.50;99.10;;;;;;5034182;28;20573;-83
2022/05/24 08:59:56;;;;;;;8.57;5.55;;;25.60;99.00;;;;;;5032656;28;20088;-83
2022/05/24 09:02:24;;;;;;;10.43;5.15;;;25.50;99.00;;;;;;5050304;28;20470;-83
2022/05/24 09:04:51;;;;;;;9.38;4.75;;;25.60;99.20;;;;;;5066759;28;20037;-83
2022/05/24 09:07:45;;;;;;;10.55;4.80;;;25.70;99.00;;;;;;5034060;28;20049;-82
2022/05/24 09:10:28;;;;;;;12.10;5.15;;;25.70;98.70;;;;;;5033588;28;20048;-83
2022/05/24 09:13:01;;;;;;;8.85;4.03;;;25.70;98.60;;;;;;5017441;28;20127;-82
2022/05/24 09:15:53;;;;;;;8.13;4.63;;;25.70;98.80;;;;;;5016962;28;20399;-83
2022/05/24 09:18:48;;;;;;;11.57;4.97;;;25.90;98.60;;;;;;5033076;28;20045;-83
2022/05/24 09:21:31;;;;;;;5.75;4.00;;;26.00;98.20;;;;;;5033579;28;20061;-82
2022/05/24 09:24:13;;;;;;;6.35;4.90;;;25.90;98.20;;;;;;5050018;28;20051;-82
2022/05/24 09:27:03;;;;;;;6.03;4.10;;;25.80;98.80;;;;;;5033357;28;20114;-82
2022/05/24 09:29:31;;;;;;;10.02;4.65;;;25.80;98.90;;;;;;5017157;28;20091;-80
2022/05/24 09:32:08;;;;;;;11.30;4.82;;;26.00;98.80;;;;;;5041190;28;20059;-80
2022/05/24 09:34:38;;;;;;;9.48;4.15;;;26.00;98.70;;;;;;5013236;28;20076;-81
2022/05/24 09:37:26;;;;;;;9.15;4.97;;;26.20;98.60;;;;;;5029741;28;20095;-80
2022/05/24 09:40:07;;;;;;;7.55;4.10;;;25.90;98.50;;;;;;5029768;28;20389;-80
2022/05/24 09:42:36;;;;;;;10.43;4.32;;;25.70;98.50;;;;;;5032456;28;20136;-80
2022/05/24 09:45:12;;;;;;;7.25;4.57;;;25.90;98.50;;;;;;5049636;28;20068;-79
2022/05/24 09:47:43;;;;;;;7.70;4.10;;;25.90;98.30;;;;;;5016948;28;20400;-80
2022/05/24 09:50:37;;;;;;;8.65;5.00;;;26.00;98.40;;;;;;5016601;28;20110;-80
2022/05/24 09:53:14;;;;;;;11.98;5.50;;;25.90;98.30;;;;;;5033082;28;20079;-80
2022/05/24 09:55:47;;;;;;;11.32;4.30;;;25.90;98.60;;;;;;5016688;28;20056;-79
2022/05/24 09:58:23;;;;;;;7.88;4.53;;;26.10;98.40;;;;;;5048969;28;20045;-80
2022/05/24 10:01:08;;;;;;;7.57;4.22;;;26.20;98.10;;;;;;5032242;28;20498;-80
2022/05/24 10:03:45;;;;;;;8.25;4.13;;;25.90;98.20;;;;;;5015364;28;20056;-80
2022/05/24 10:06:23;;;;;;;11.25;4.35;;;26.20;98.20;;;;;;5016010;28;20048;-80
2022/05/24 10:08:53;;;;;;;8.90;5.22;;;26.20;98.10;;;;;;5016162;28;20080;-80
2022/05/24 10:11:48;;;;;;;9.27;4.43;;;26.30;97.80;;;;;;5033006;28;20041;-80
2022/05/24 10:14:25;;;;;;;10.20;6.03;;;26.40;97.70;;;;;;5049156;28;20063;-80
2022/05/24 10:17:23;;;;;;;6.82;3.88;;;26.50;97.60;;;;;;5016465;28;20048;-80
2022/05/24 10:19:54;;;;;;;9.23;4.30;;;26.50;97.60;;;;;;5049213;28;20049;-80
2022/05/24 10:22:44;;;;;;;7.22;4.57;;;26.50;97.70;;;;;;5016723;28;20042;-80
2022/05/24 10:25:30;;;;;;;10.25;4.32;;;26.50;97.70;;;;;;5016156;28;20080;-80
2022/05/24 10:28:16;;;;;;;8.68;4.63;;;26.60;97.30;;;;;;5047303;28;20525;-80
2022/05/24 10:31:08;;;;;;;11.38;4.45;;;26.70;97.30;;;;;;5050124;28;20115;-81
2022/05/24 10:40:12;;;;;;;7.07;3.92;;;26.80;97.30;;;;;;4999395;28;20067;-80
2022/05/24 10:42:43;;;;;;;7.32;4.00;;;26.60;96.90;;;;;;5032534;28;20072;-80
2022/05/24 10:45:20;;;;;;;11.15;5.18;;;26.80;97.00;;;;;;5048993;28;20049;-81
2022/05/24 10:47:54;;;;;;;8.90;4.53;;;26.70;96.90;;;;;;5032293;28;20061;-80
2022/05/24 10:50:36;;;;;;;8.73;4.38;;;26.60;97.00;;;;;;5032455;28;20124;-80
2022/05/24 10:53:13;;;;;;;8.05;3.90;;;26.80;96.90;;;;;;5048998;28;20045;-81
2022/05/24 10:55:46;;;;;;;8.30;4.65;;;26.90;96.80;;;;;;5049258;28;20041;-81
2022/05/24 10:58:17;;;;;;;10.00;4.28;;;26.80;97.20;;;;;;5030794;28;20507;-81
2022/05/24 11:01:06;;;;;;;8.63;4.45;;;26.80;97.20;;;;;;5032631;28;20044;-81
2022/05/24 11:03:44;;;;;;;10.25;4.22;;;26.90;97.10;;;;;;5015553;28;20056;-80
2022/05/24 11:06:39;;;;;;;6.25;3.70;;;27.00;97.00;;;;;;5032459;28;20049;-81
2022/05/24 11:09:17;;;;;;;6.90;4.50;;;26.70;97.00;;;;;;5032136;28;20055;-80
2022/05/24 11:12:06;;;;;;;15.43;5.30;;;26.70;97.20;;;;;;5032075;28;20052;-81
2022/05/24 11:14:47;;;;;;;6.32;4.28;;;26.50;97.20;;;;;;5016412;28;20483;-80
2022/05/24 11:17:17;;;;;;;7.03;3.60;;;26.50;97.50;;;;;;5048746;28;20044;-80
2022/05/24 11:19:49;;;;;;;10.63;4.13;;;26.50;97.40;;;;;;5031996;28;20114;-80
2022/05/24 11:22:35;;;;;;;6.25;3.97;;;26.70;97.60;;;;;;5015525;28;20140;-80
2022/05/24 11:25:32;;;;;;;8.00;4.40;;;26.60;97.40;;;;;;5035244;28;20635;-80
2022/05/24 11:28:00;;;;;;;8.75;4.50;;;26.70;97.30;;;;;;5051091;28;20060;-80
2022/05/24 11:30:28;;;;;;;7.03;4.13;;;26.50;97.50;;;;;;5019024;28;20376;-80
2022/05/24 11:33:05;;;;;;;9.57;4.30;;;26.60;97.50;;;;;;5035429;28;20152;-80
2022/05/24 11:35:36;;;;;;;7.07;4.82;;;26.60;97.50;;;;;;5019179;28;20505;-80
2022/05/24 11:38:20;;;;;;;8.30;4.20;;;26.60;97.10;;;;;;5019112;28;20406;-79
2022/05/24 11:40:56;;;;;;;10.48;3.83;;;26.60;97.30;;;;;;5035463;28;20057;-80
2022/05/24 11:43:38;;;;;;;9.80;4.00;;;26.60;97.00;;;;;;5035119;28;20372;-79
2022/05/24 11:46:09;;;;;;;8.85;3.65;;;26.60;97.20;;;;;;5035192;28;20140;-79
2022/05/24 11:48:47;;;;;;;7.50;4.30;;;26.40;97.20;;;;;;5051605;28;20053;-81
2022/05/24 11:51:41;;;;;;;12.20;4.28;;;26.50;97.40;;;;;;5035318;28;20446;-80
2022/05/24 11:54:29;;;;;;;8.52;3.67;;;26.60;97.10;;;;;;5034591;28;20060;-80
2022/05/24 11:57:02;;;;;;;7.45;4.60;;;26.80;97.20;;;;;;5035027;28;20080;-80
2022/05/24 11:59:46;;;;;;;6.88;4.22;;;26.60;97.30;;;;;;5052676;28;20554;-80
2022/05/24 12:02:21;;;;;;;5.63;3.95;;;26.50;97.30;;;;;;5018506;28;20106;-81
2022/05/24 12:08:01;;;;;;;10.15;4.10;;;26.60;97.40;;;;;;5051255;28;20296;-83
2022/05/24 12:10:46;;;;;;;11.73;4.20;;;26.50;97.40;;;;;;5034094;28;20045;-83
2022/05/24 12:13:29;;;;;;;8.48;4.25;;;26.60;97.50;;;;;;5035106;28;20110;-83
2022/05/24 12:16:06;;;;;;;8.75;4.28;;;26.60;97.70;;;;;;5006698;28;20061;-83
2022/05/24 12:18:42;;;;;;;9.20;4.15;;;26.70;97.60;;;;;;5047584;28;20040;-83
2022/05/24 12:21:30;;;;;;;8.02;4.15;;;26.80;97.30;;;;;;4998926;28;20045;-82
2022/05/24 12:24:36;;;;;;;10.27;4.07;;;26.60;97.50;;;;;;5030345;28;20037;-83
2022/05/24 12:27:22;;;;;;;7.28;3.83;;;26.70;97.40;;;;;;4998275;28;20049;-82
2022/05/24 12:29:57;;;;;;;10.48;5.15;;;26.60;97.50;;;;;;5014573;28;20064;-82
2022/05/24 12:32:30;;;;;;;7.60;3.72;;;26.50;97.70;;;;;;5034872;28;20240;-82
2022/05/24 12:35:10;;;;;;;7.85;3.90;;;26.50;97.90;;;;;;5033757;28;20159;-82
2022/05/24 12:37:53;;;;;;;8.52;4.38;;;26.60;97.80;;;;;;5034232;28;20055;-82
2022/05/24 12:40:24;;;;;;;8.25;3.33;;;26.60;97.80;;;;;;5033982;28;20052;-82
2022/05/24 12:42:58;;;;;;;7.50;3.92;;;26.50;97.90;;;;;;5050729;28;20056;-82
2022/05/24 12:45:39;;;;;;;8.90;3.70;;;26.60;97.70;;;;;;5034117;28;20050;-83
2022/05/24 12:48:24;;;;;;;8.82;3.78;;;26.70;97.70;;;;;;5033646;28;20056;-83
2022/05/24 12:51:03;;;;;;;10.02;4.28;;;26.70;97.70;;;;;;5033980;28;20049;-83
2022/05/24 12:53:31;;;;;;;7.25;4.18;;;26.60;97.70;;;;;;5034294;28;20056;-83
2022/05/24 12:56:13;;;;;;;9.75;3.67;;;26.70;97.50;;;;;;5033676;28;20136;-83
2022/05/24 12:58:45;;;;;;;6.90;4.05;;;26.70;97.40;;;;;;5050580;28;20487;-83
2022/05/24 13:01:13;;;;;;;6.85;4.03;;;26.70;97.50;;;;;;5033941;28;20395;-82
2022/05/24 13:04:27;;;;;;;5.90;4.18;;;26.60;97.30;;;;;;5033479;28;20037;-83
2022/05/24 13:07:28;;;;;;;13.38;4.43;;;26.60;97.30;;;;;;5014210;28;20064;-83
2022/05/24 13:09:55;;;;;;;8.68;4.22;;;26.80;97.40;;;;;;5033063;28;20063;-82
2022/05/24 13:12:24;;;;;;;8.20;4.10;;;26.90;97.10;;;;;;5050260;28;20040;-82
2022/05/24 13:14:56;;;;;;;6.18;3.22;;;27.00;96.80;;;;;;5050402;28;20511;-82
2022/05/24 13:17:27;;;;;;;9.43;3.83;;;27.00;96.90;;;;;;5033155;28;20372;-82
2022/05/24 13:20:00;;;;;;;12.00;4.47;;;27.00;96.80;;;;;;5049698;28;20421;-82
2022/05/24 13:22:40;;;;;;;8.20;4.00;;;27.10;96.70;;;;;;5050467;28;20056;-84
2022/05/24 13:25:21;;;;;;;9.80;3.72;;;27.00;96.50;;;;;;5051020;28;20049;-84
2022/05/24 13:28:02;;;;;;;11.95;4.32;;;27.00;96.50;;;;;;5050622;28;20769;-84
2022/05/24 13:33:46;;;;;;;7.72;3.53;;;27.10;96.50;;;;;;5048148;28;20133;-83
2022/05/24 13:36:16;;;;;;;6.82;3.50;;;27.00;96.40;;;;;;5033346;28;20048;-82
2022/05/24 13:39:05;;;;;;;6.15;3.25;;;27.10;96.40;;;;;;5049721;28;20041;-83
2022/05/24 13:41:45;;;;;;;6.80;3.13;;;27.10;96.20;;;;;;5016559;28;20075;-80
2022/05/24 13:44:38;;;;;;;5.50;4.05;;;27.30;96.00;;;;;;5034760;28;20041;-79
2022/05/24 13:47:25;;;;;;;5.40;3.33;;;27.30;95.90;;;;;;5032857;28;20128;-81
2022/05/24 13:49:57;;;;;;;6.00;3.85;;;27.20;95.90;;;;;;5032865;28;20518;-80
2022/05/24 13:52:36;;;;;;;8.57;4.25;;;27.00;96.00;;;;;;5049584;28;20048;-79